Time;durP1;ratioP1;P1;durP2;ratioP2;P2;SDS_P1;SDS_P2;PMS_P1;PMS_P2;Temp;Humidity;BMP_temperature;BMP_pressure;BME280_temperature;BME280_humidity;BME280_pressure;Samples;Min_cycle;Max_cycle;Signal;HPM_P1;HPM_P2
2022/03/20 00:00:07;;;;;;;10.40;4.15;;;6.20;99.90;;;;;;4862575;29;20127;-90
2022/03/20 00:02:33;;;;;;;8.20;4.40;;;6.00;99.90;;;;;;4878299;29;20089;-92
2022/03/20 00:05:02;;;;;;;8.35;4.13;;;6.00;99.90;;;;;;4872384;29;20083;-91
2022/03/20 00:07:33;;;;;;;9.38;4.25;;;7.00;99.90;;;;;;4876073;29;20061;-91
2022/03/20 00:10:00;;;;;;;8.95;4.38;;;6.10;99.90;;;;;;4899311;29;20053;-92
2022/03/20 00:12:26;;;;;;;9.52;4.60;;;6.00;99.90;;;;;;4899961;29;20048;-91
2022/03/20 00:14:52;;;;;;;11.80;4.85;;;5.90;99.90;;;;;;4860709;29;20045;-91
2022/03/20 00:17:20;;;;;;;11.05;4.70;;;5.90;99.90;;;;;;4864753;29;20052;-88
2022/03/20 00:19:46;;;;;;;11.10;4.55;;;6.20;99.90;;;;;;4863849;29;20495;-91
2022/03/20 00:22:12;;;;;;;;;;;6.10;99.90;;;;;;4881674;29;20483;-91
2022/03/20 00:24:40;;;;;;;12.65;4.72;;;5.90;99.90;;;;;;4881831;29;19932;-92
2022/03/20 00:27:08;;;;;;;11.63;3.83;;;5.80;99.90;;;;;;4881235;29;20052;-88
2022/03/20 00:29:34;;;;;;;10.88;4.50;;;5.80;99.90;;;;;;4882609;29;20048;-90
2022/03/20 00:32:00;;;;;;;8.55;4.50;;;5.70;99.90;;;;;;4881446;29;20055;-92
2022/03/20 00:34:26;;;;;;;11.30;5.53;;;6.50;99.90;;;;;;4877978;29;20048;-93
2022/03/20 00:36:51;;;;;;;11.70;5.10;;;5.60;99.90;;;;;;4848094;29;20088;-92
2022/03/20 00:39:17;;;;;;;8.82;4.40;;;6.00;99.90;;;;;;4856962;29;20049;-92
2022/03/20 00:41:43;;;;;;;13.77;5.47;;;6.10;99.90;;;;;;4863834;29;20104;-92
2022/03/20 00:44:09;;;;;;;12.23;4.70;;;5.80;99.90;;;;;;4881351;29;20131;-90
2022/03/20 00:46:34;;;;;;;11.02;4.53;;;5.80;99.90;;;;;;4881819;29;20077;-91
2022/03/20 00:49:00;;;;;;;13.57;5.40;;;5.70;99.90;;;;;;4874993;29;20057;-91
2022/03/20 00:51:26;;;;;;;14.18;5.70;;;5.60;99.90;;;;;;4855125;29;20517;-89
2022/03/20 00:53:53;;;;;;;9.55;4.53;;;5.60;99.90;;;;;;4838015;29;20057;-91
2022/03/20 00:56:19;;;;;;;16.23;5.30;;;5.60;99.90;;;;;;4873986;29;20055;-90
2022/03/20 00:58:46;;;;;;;15.07;5.75;;;5.50;99.90;;;;;;4865399;29;20052;-91
2022/03/20 01:01:14;;;;;;;12.35;4.80;;;5.50;99.90;;;;;;4880740;29;20509;-91
2022/03/20 01:03:41;;;;;;;12.48;4.35;;;5.50;99.90;;;;;;4881730;29;20056;-89
2022/03/20 01:06:07;;;;;;;12.77;5.88;;;5.50;99.90;;;;;;4866287;29;20125;-89
2022/03/20 01:08:34;;;;;;;14.40;5.95;;;5.70;99.90;;;;;;4862464;29;20045;-90
2022/03/20 01:11:02;;;;;;;13.75;5.35;;;5.40;99.90;;;;;;4862773;29;20055;-89
2022/03/20 01:13:29;;;;;;;15.27;5.72;;;5.50;99.90;;;;;;4846281;29;20049;-92
2022/03/20 01:15:55;;;;;;;12.20;5.93;;;5.50;99.90;;;;;;4847463;29;20060;-91
2022/03/20 01:18:21;;;;;;;14.25;6.93;;;5.40;99.90;;;;;;4861644;29;20076;-90
2022/03/20 01:20:47;;;;;;;;;;;5.90;99.90;;;;;;4863561;29;20094;-89
2022/03/20 01:23:13;;;;;;;12.13;5.65;;;5.40;99.90;;;;;;4862361;29;19963;-91
2022/03/20 01:25:40;;;;;;;16.40;7.25;;;5.30;99.90;;;;;;4832248;29;20068;-89
2022/03/20 01:28:06;;;;;;;14.13;7.43;;;5.30;99.90;;;;;;4873076;29;20049;-92
2022/03/20 01:30:31;;;;;;;13.80;6.43;;;5.30;99.90;;;;;;4862582;29;20324;-91
2022/03/20 01:32:57;;;;;;;16.90;7.00;;;5.20;99.90;;;;;;4850128;29;20068;-91
2022/03/20 01:35:23;;;;;;;18.42;7.47;;;5.30;99.90;;;;;;4831731;29;20384;-90
2022/03/20 01:37:49;;;;;;;17.92;7.18;;;5.20;99.90;;;;;;4846971;29;20049;-90
2022/03/20 01:40:15;;;;;;;14.77;7.43;;;5.20;99.90;;;;;;4880371;29;20608;-89
2022/03/20 01:42:41;;;;;;;;;;;5.50;99.90;;;;;;4880941;29;20048;-91
2022/03/20 01:45:19;;;;;;;18.15;6.95;;;5.70;99.90;;;;;;4865624;29;20506;-91
2022/03/20 01:47:47;;;;;;;16.92;7.47;;;5.10;99.90;;;;;;4880670;29;20096;-91
2022/03/20 01:50:14;;;;;;;14.13;6.85;;;5.70;99.90;;;;;;4880783;29;20045;-89
2022/03/20 01:52:40;;;;;;;12.75;6.70;;;5.10;99.90;;;;;;4880715;29;20064;-92
2022/03/20 01:55:08;;;;;;;14.45;6.97;;;5.00;99.90;;;;;;4846283;29;20554;-91
2022/03/20 01:57:37;;;;;;;12.15;6.45;;;4.90;99.90;;;;;;4860788;29;20702;-89
2022/03/20 02:00:06;;;;;;;16.92;7.13;;;4.90;99.90;;;;;;4876965;29;20132;-92
2022/03/20 02:02:31;;;;;;;14.10;7.00;;;4.80;99.90;;;;;;4879474;29;20081;-91
2022/03/20 02:04:57;;;;;;;14.38;6.97;;;4.90;99.90;;;;;;4880831;29;20095;-89
2022/03/20 02:07:24;;;;;;;17.75;6.70;;;4.70;99.90;;;;;;4880110;29;20087;-90
2022/03/20 02:09:50;;;;;;;17.52;7.75;;;4.60;99.90;;;;;;4874227;29;20052;-91
2022/03/20 02:12:16;;;;;;;13.27;6.78;;;4.90;99.90;;;;;;4859941;29;20151;-90
2022/03/20 02:14:42;;;;;;;11.95;6.63;;;5.10;99.90;;;;;;4849709;29;20051;-89
2022/03/20 02:17:10;;;;;;;15.20;7.13;;;5.70;99.90;;;;;;4880479;29;20060;-90
2022/03/20 02:19:38;;;;;;;19.77;7.97;;;5.60;99.90;;;;;;4849412;29;20080;-91
2022/03/20 02:22:04;;;;;;;13.98;7.65;;;5.30;99.90;;;;;;4880591;29;20053;-91
2022/03/20 02:24:30;;;;;;;15.27;7.43;;;4.40;99.90;;;;;;4864213;29;20060;-91
2022/03/20 02:27:27;;;;;;;16.45;7.53;;;5.00;99.90;;;;;;4861536;29;20448;-89
2022/03/20 02:30:00;;;;;;;14.30;6.85;;;4.40;99.90;;;;;;4861942;29;20499;-88
2022/03/20 02:32:28;;;;;;;15.13;7.65;;;4.40;99.90;;;;;;4875854;29;20108;-90
2022/03/20 02:35:04;;;;;;;16.27;7.00;;;4.30;99.90;;;;;;4874557;29;20041;-90
2022/03/20 02:37:31;;;;;;;14.68;7.13;;;4.30;99.90;;;;;;4864196;29;20052;-89
2022/03/20 02:40:00;;;;;;;15.10;7.22;;;4.70;99.90;;;;;;4880206;29;20177;-90
2022/03/20 02:42:26;;;;;;;18.75;7.80;;;4.30;99.90;;;;;;4878484;29;20044;-90
2022/03/20 02:44:59;;;;;;;18.15;7.70;;;5.30;99.90;;;;;;4872757;29;20056;-90
2022/03/20 02:47:29;;;;;;;20.40;8.15;;;4.20;99.90;;;;;;4860266;29;20053;-89
2022/03/20 02:50:16;;;;;;;18.85;8.13;;;5.30;99.90;;;;;;4861796;29;20099;-89
2022/03/20 02:52:43;;;;;;;16.83;7.68;;;4.10;99.90;;;;;;4851791;29;20061;-90
2022/03/20 02:55:09;;;;;;;18.38;7.88;;;4.30;99.90;;;;;;4845882;29;20665;-90
2022/03/20 02:57:35;;;;;;;17.08;8.30;;;4.00;99.90;;;;;;4829283;29;20108;-90
2022/03/20 03:00:03;;;;;;;18.17;8.27;;;4.10;99.90;;;;;;4876762;29;20053;-89
2022/03/20 03:02:35;;;;;;;20.02;8.63;;;4.00;99.90;;;;;;4830101;29;20188;-88
2022/03/20 03:05:01;;;;;;;17.60;8.13;;;3.90;99.90;;;;;;4878375;29;20508;-89
2022/03/20 03:07:32;;;;;;;18.95;8.13;;;4.00;99.90;;;;;;4879201;29;20041;-90
2022/03/20 03:12:43;;;;;;;20.42;8.63;;;5.20;99.90;;;;;;4893959;29;20117;-89
2022/03/20 03:15:21;;;;;;;;;;;3.90;99.90;;;;;;4880019;29;20096;-89
2022/03/20 03:17:48;;;;;;;16.70;8.15;;;3.90;99.90;;;;;;4895035;29;19979;-89
2022/03/20 03:20:14;;;;;;;16.02;8.13;;;3.90;99.90;;;;;;4868254;29;20049;-89
2022/03/20 03:22:40;;;;;;;13.68;6.90;;;3.80;99.90;;;;;;4860538;29;20538;-89
2022/03/20 03:25:06;;;;;;;;;;;3.80;99.90;;;;;;4849486;29;20495;-89
2022/03/20 03:27:32;;;;;;;16.80;7.90;;;3.80;99.90;;;;;;4875478;29;19939;-90
2022/03/20 03:29:57;;;;;;;15.20;7.90;;;3.80;99.90;;;;;;4849554;29;20049;-90
2022/03/20 03:32:23;;;;;;;14.75;7.70;;;3.70;99.90;;;;;;4833343;29;20052;-89
2022/03/20 03:37:33;;;;;;;16.50;7.75;;;3.70;99.90;;;;;;4882287;29;20055;-90
2022/03/20 03:40:01;;;;;;;16.75;8.73;;;3.70;99.90;;;;;;4882839;29;20049;-89
2022/03/20 03:42:28;;;;;;;20.55;8.73;;;3.80;99.90;;;;;;4881528;29;20068;-90
2022/03/20 03:44:54;;;;;;;20.73;8.45;;;4.80;99.90;;;;;;4882728;29;20056;-90
2022/03/20 03:47:20;;;;;;;20.60;9.27;;;4.80;99.90;;;;;;4865244;29;20510;-87
2022/03/20 03:49:45;;;;;;;21.08;8.80;;;3.90;99.90;;;;;;4854889;29;20045;-88
2022/03/20 03:52:11;;;;;;;21.33;9.13;;;4.20;99.90;;;;;;4863992;29;20168;-89
2022/03/20 03:54:37;;;;;;;16.70;9.00;;;3.50;99.90;;;;;;4831920;29;20053;-87
2022/03/20 03:57:03;;;;;;;17.88;7.72;;;3.50;99.90;;;;;;4833740;29;20057;-89
2022/03/20 03:59:29;;;;;;;21.58;9.43;;;3.50;99.90;;;;;;4866412;29;20048;-90
2022/03/20 04:01:55;;;;;;;18.50;9.15;;;3.60;99.90;;;;;;4851250;29;20136;-88
2022/03/20 04:04:21;;;;;;;20.13;9.38;;;3.40;99.90;;;;;;4882565;29;20060;-90
2022/03/20 04:06:46;;;;;;;21.92;9.27;;;3.40;99.90;;;;;;4882413;29;20060;-90
2022/03/20 04:09:12;;;;;;;18.42;8.07;;;3.40;99.90;;;;;;4881930;29;20440;-89
2022/03/20 04:11:38;;;;;;;22.13;9.20;;;3.40;99.90;;;;;;4866307;29;20068;-91
2022/03/20 04:14:03;;;;;;;23.70;10.70;;;3.80;99.90;;;;;;4882165;29;20104;-90
2022/03/20 04:16:29;;;;;;;17.95;8.77;;;3.30;99.90;;;;;;4850682;29;20068;-91
2022/03/20 04:18:55;;;;;;;18.95;9.40;;;3.30;99.90;;;;;;4882107;29;20051;-89
2022/03/20 04:21:20;;;;;;;19.17;10.40;;;3.30;99.90;;;;;;4850442;29;20506;-90
2022/03/20 04:23:48;;;;;;;16.10;9.00;;;4.10;99.90;;;;;;4861844;29;20128;-92
2022/03/20 04:26:19;;;;;;;18.73;9.27;;;3.60;99.90;;;;;;4832919;29;20045;-91
2022/03/20 04:28:47;;;;;;;26.95;9.43;;;4.40;99.90;;;;;;4878196;29;20115;-90
2022/03/20 04:31:17;;;;;;;23.55;9.95;;;4.40;99.90;;;;;;4878939;29;20502;-89
2022/03/20 04:33:54;;;;;;;21.90;10.52;;;3.20;99.90;;;;;;4881415;29;20040;-89
2022/03/20 04:36:24;;;;;;;22.10;9.73;;;3.20;99.90;;;;;;4881115;29;20056;-91
2022/03/20 04:38:52;;;;;;;19.60;9.52;;;4.00;99.90;;;;;;4875725;29;20048;-89
2022/03/20 04:41:18;;;;;;;25.10;10.80;;;3.10;99.90;;;;;;4881798;29;20083;-91
2022/03/20 04:43:49;;;;;;;21.42;11.18;;;4.10;99.90;;;;;;4865442;29;20048;-89
2022/03/20 04:46:16;;;;;;;22.98;11.13;;;3.10;99.90;;;;;;4864435;29;20057;-90
2022/03/20 04:59:39;;;;;;;19.80;9.55;;;3.30;99.90;;;;;;4862403;29;20053;-90
2022/03/20 05:02:05;;;;;;;22.90;10.20;;;3.10;99.90;;;;;;4847569;29;20376;-91
2022/03/20 05:04:31;;;;;;;23.63;10.18;;;3.10;99.90;;;;;;4847281;29;20073;-89
2022/03/20 05:06:57;;;;;;;21.10;11.65;;;3.10;99.90;;;;;;4863573;29;20679;-91
2022/03/20 05:14:51;;;;;;;22.38;10.38;;;3.00;99.90;;;;;;4862666;29;20060;-89
2022/03/20 05:17:17;;;;;;;25.30;10.35;;;3.10;99.90;;;;;;4847363;29;20056;-91
2022/03/20 05:19:43;;;;;;;15.52;7.50;;;3.10;99.90;;;;;;4847184;29;20095;-89
2022/03/20 05:22:10;;;;;;;23.35;11.23;;;3.00;99.90;;;;;;4854343;29;20056;-91
2022/03/20 05:24:37;;;;;;;22.85;9.68;;;3.00;99.90;;;;;;4875173;29;20052;-88
2022/03/20 05:27:04;;;;;;;26.83;11.73;;;3.00;99.90;;;;;;4870104;29;20080;-88
2022/03/20 05:29:30;;;;;;;23.40;11.40;;;2.90;99.90;;;;;;4880755;29;20052;-88
2022/03/20 05:31:56;;;;;;;22.45;10.77;;;2.90;99.90;;;;;;4849799;29;20048;-89
2022/03/20 05:34:22;;;;;;;19.50;9.07;;;2.90;99.90;;;;;;4846993;29;20049;-90
2022/03/20 05:36:49;;;;;;;25.23;10.70;;;2.90;99.90;;;;;;4862398;29;20053;-90
2022/03/20 05:39:15;;;;;;;24.50;11.13;;;2.90;99.90;;;;;;4861712;29;20049;-89
2022/03/20 05:41:48;;;;;;;21.77;10.95;;;2.90;99.90;;;;;;4861771;29;20608;-90
2022/03/20 05:44:15;;;;;;;24.75;11.45;;;2.90;99.90;;;;;;4877859;29;20060;-90
2022/03/20 05:46:42;;;;;;;25.75;11.73;;;2.80;99.90;;;;;;4831509;29;20096;-89
2022/03/20 05:49:08;;;;;;;22.13;11.43;;;3.30;99.90;;;;;;4847281;29;20060;-90
2022/03/20 05:51:34;;;;;;;19.00;9.70;;;3.10;99.90;;;;;;4831562;29;20052;-88
2022/03/20 05:54:01;;;;;;;21.20;9.88;;;3.50;99.90;;;;;;4873302;29;20514;-92
2022/03/20 05:59:11;;;;;;;23.92;10.35;;;2.80;99.90;;;;;;4861996;29;20361;-92
2022/03/20 06:01:36;;;;;;;20.38;10.73;;;3.00;99.90;;;;;;4876784;29;20080;-90
2022/03/20 06:04:03;;;;;;;23.20;11.18;;;2.80;99.90;;;;;;4877729;29;20049;-91
2022/03/20 06:06:32;;;;;;;18.35;8.88;;;2.80;99.90;;;;;;4877712;29;20053;-90
2022/03/20 06:08:58;;;;;;;21.63;11.55;;;2.80;99.90;;;;;;4831475;29;20063;-92
2022/03/20 06:11:24;;;;;;;21.23;11.40;;;3.00;99.90;;;;;;4877338;29;20093;-91
2022/03/20 06:13:49;;;;;;;22.35;11.57;;;3.40;99.90;;;;;;4845815;29;20076;-89
2022/03/20 06:16:16;;;;;;;25.55;11.80;;;2.80;99.90;;;;;;4859388;29;20203;-88
2022/03/20 06:18:42;;;;;;;22.25;10.77;;;2.80;99.90;;;;;;4846136;29;20064;-91
2022/03/20 06:21:09;;;;;;;;;;;3.30;99.90;;;;;;4879093;29;20096;-91
2022/03/20 06:23:35;;;;;;;26.50;11.52;;;2.80;99.90;;;;;;4849513;29;19927;-89
2022/03/20 06:26:01;;;;;;;21.90;10.10;;;2.90;99.90;;;;;;4849643;29;20052;-91
2022/03/20 06:28:28;;;;;;;20.80;8.65;;;3.40;99.90;;;;;;4864296;29;20056;-88
2022/03/20 06:30:54;;;;;;;21.50;10.73;;;2.90;99.90;;;;;;4880316;29;20112;-90
2022/03/20 06:33:20;;;;;;;18.20;7.90;;;2.90;99.90;;;;;;4861942;29;20045;-89
2022/03/20 06:35:46;;;;;;;23.15;10.85;;;3.90;99.90;;;;;;4845638;29;20057;-89
2022/03/20 06:38:12;;;;;;;15.07;7.40;;;2.90;99.90;;;;;;4861499;29;20045;-91
2022/03/20 06:40:38;;;;;;;23.42;11.13;;;2.90;99.90;;;;;;4830687;29;20060;-92
2022/03/20 06:43:05;;;;;;;21.08;10.82;;;4.00;99.90;;;;;;4845789;29;20057;-92
2022/03/20 06:45:30;;;;;;;28.55;11.82;;;3.00;99.90;;;;;;4869072;29;20738;-91
2022/03/20 06:47:59;;;;;;;20.77;9.80;;;3.40;99.90;;;;;;4879357;29;20112;-88
2022/03/20 06:50:25;;;;;;;24.20;12.00;;;3.00;99.90;;;;;;4880549;29;20064;-89
2022/03/20 06:52:50;;;;;;;21.13;10.00;;;3.30;99.90;;;;;;4879742;29;20075;-91
2022/03/20 06:55:16;;;;;;;23.80;12.00;;;3.10;99.90;;;;;;4864667;29;20057;-92
2022/03/20 06:57:44;;;;;;;24.23;11.93;;;4.20;99.90;;;;;;4879111;29;20502;-91
2022/03/20 07:00:11;;;;;;;22.48;11.15;;;3.60;99.90;;;;;;4884258;29;20048;-92
2022/03/20 07:02:36;;;;;;;22.38;8.73;;;3.30;99.90;;;;;;4868514;29;20088;-87
2022/03/20 07:05:03;;;;;;;20.10;9.27;;;3.40;99.90;;;;;;4852467;29;20144;-91
2022/03/20 07:07:29;;;;;;;31.55;12.70;;;3.40;99.90;;;;;;4868119;29;20059;-92
2022/03/20 07:09:54;;;;;;;25.98;11.85;;;3.40;99.90;;;;;;4880325;29;20072;-91
2022/03/20 07:12:20;;;;;;;19.60;9.82;;;3.40;99.90;;;;;;4870495;29;20096;-91
2022/03/20 07:14:46;;;;;;;19.05;9.57;;;3.60;99.90;;;;;;4886336;29;20195;-92
2022/03/20 07:17:13;;;;;;;23.63;9.45;;;3.50;99.90;;;;;;4886601;29;20052;-91
2022/03/20 07:19:44;;;;;;;23.42;11.25;;;3.60;99.90;;;;;;4888307;29;20041;-88
2022/03/20 07:22:13;;;;;;;23.77;11.90;;;4.00;99.90;;;;;;4853238;29;20048;-91
2022/03/20 07:24:43;;;;;;;21.88;9.52;;;3.60;99.90;;;;;;4882564;29;20055;-86
2022/03/20 07:30:07;;;;;;;26.13;12.00;;;3.60;99.90;;;;;;4814022;29;20218;-93
2022/03/20 07:32:33;;;;;;;22.92;9.75;;;3.60;99.90;;;;;;4849366;29;20499;-94
2022/03/20 07:34:59;;;;;;;25.15;11.32;;;3.70;99.90;;;;;;4864992;29;20057;-93
2022/03/20 07:37:26;;;;;;;18.35;10.07;;;4.70;99.90;;;;;;4858895;29;20071;-92
2022/03/20 07:39:52;;;;;;;22.92;9.02;;;4.80;99.90;;;;;;4882517;29;20045;-91
2022/03/20 07:42:19;;;;;;;25.92;11.40;;;4.90;99.90;;;;;;4883003;29;20049;-93
2022/03/20 07:44:46;;;;;;;20.67;8.82;;;5.10;99.90;;;;;;4883072;29;20048;-92
2022/03/20 07:47:20;;;;;;;23.77;11.57;;;5.40;99.90;;;;;;4867845;29;20059;-92
2022/03/20 07:49:47;;;;;;;23.45;12.15;;;4.70;99.90;;;;;;4882768;29;20045;-91
2022/03/20 07:52:13;;;;;;;22.25;10.48;;;4.10;99.90;;;;;;4849411;29;20196;-92
2022/03/20 07:54:39;;;;;;;22.15;10.38;;;4.30;99.90;;;;;;4848837;29;20057;-88
2022/03/20 07:57:07;;;;;;;22.27;11.52;;;4.40;99.80;;;;;;4870053;29;20053;-87
2022/03/20 07:59:32;;;;;;;24.90;11.70;;;4.20;99.80;;;;;;4864525;29;20051;-85
2022/03/20 08:01:58;;;;;;;24.30;11.25;;;4.30;99.00;;;;;;4878904;29;20056;-88
2022/03/20 08:04:24;;;;;;;25.58;11.25;;;4.30;98.70;;;;;;4880191;29;20049;-87
2022/03/20 08:06:50;;;;;;;23.38;11.35;;;4.30;98.70;;;;;;4863991;29;20053;-88
2022/03/20 08:09:17;;;;;;;22.98;12.40;;;4.30;98.40;;;;;;4832553;29;20056;-94
2022/03/20 08:11:42;;;;;;;22.85;12.70;;;4.40;98.60;;;;;;4864283;29;20183;-91
2022/03/20 08:14:09;;;;;;;25.95;10.73;;;4.40;97.70;;;;;;4882707;29;20059;-90
2022/03/20 08:16:38;;;;;;;21.38;9.48;;;4.50;96.40;;;;;;4868912;29;20133;-91
2022/03/20 08:19:05;;;;;;;28.80;11.65;;;5.20;96.10;;;;;;4883417;29;20495;-92
2022/03/20 08:21:35;;;;;;;22.33;10.82;;;5.00;96.30;;;;;;4868027;29;20998;-89
2022/03/20 08:24:04;;;;;;;22.75;11.40;;;4.60;95.40;;;;;;4848137;29;20052;-91
2022/03/20 08:26:33;;;;;;;24.42;11.95;;;4.70;94.60;;;;;;4848309;29;20080;-92
2022/03/20 08:29:00;;;;;;;25.15;10.80;;;4.70;93.90;;;;;;4864382;29;20049;-93
2022/03/20 08:31:27;;;;;;;21.60;11.32;;;5.10;94.70;;;;;;4852978;29;20049;-91
2022/03/20 08:33:53;;;;;;;20.45;9.77;;;5.00;93.70;;;;;;4844945;29;20057;-91
2022/03/20 08:36:20;;;;;;;23.70;11.13;;;5.00;92.30;;;;;;4865260;29;20136;-92
2022/03/20 08:38:46;;;;;;;28.20;13.45;;;5.10;92.50;;;;;;4864754;29;20052;-91
2022/03/20 08:41:13;;;;;;;20.20;10.52;;;5.50;92.50;;;;;;4864767;29;20049;-93
2022/03/20 08:43:39;;;;;;;21.58;11.43;;;5.30;91.50;;;;;;4849544;29;20140;-93
2022/03/20 08:46:05;;;;;;;24.50;11.88;;;5.40;91.70;;;;;;4849540;29;20144;-92
2022/03/20 08:48:30;;;;;;;27.95;13.38;;;5.30;91.20;;;;;;4834060;29;20053;-93
2022/03/20 08:50:56;;;;;;;28.45;14.55;;;5.30;91.30;;;;;;4864402;29;20049;-90
2022/03/20 08:53:22;;;;;;;29.67;12.65;;;5.40;90.50;;;;;;4849732;29;20061;-93
2022/03/20 08:55:49;;;;;;;25.20;11.82;;;5.90;90.30;;;;;;4883037;29;20052;-92
2022/03/20 08:58:15;;;;;;;26.80;12.93;;;6.30;89.60;;;;;;4882663;29;20049;-94
2022/03/20 09:00:42;;;;;;;25.98;13.00;;;6.70;88.50;;;;;;4837773;29;20055;-93
2022/03/20 09:03:10;;;;;;;28.30;12.32;;;5.60;85.40;;;;;;4882056;29;20112;-92
2022/03/20 09:05:36;;;;;;;25.10;12.52;;;6.10;85.40;;;;;;4852868;29;20048;-92
2022/03/20 09:08:02;;;;;;;24.98;13.07;;;5.70;82.90;;;;;;4882220;29;20055;-93
2022/03/20 09:10:28;;;;;;;25.35;12.48;;;5.80;82.70;;;;;;4867094;29;20064;-92
2022/03/20 09:13:00;;;;;;;33.17;12.32;;;6.10;82.50;;;;;;4850407;29;20049;-90
2022/03/20 09:15:27;;;;;;;29.55;13.90;;;5.90;80.40;;;;;;4883020;29;20112;-89
2022/03/20 09:20:40;;;;;;;27.00;12.95;;;6.10;80.60;;;;;;4896583;29;20053;-83
2022/03/20 09:23:07;;;;;;;20.35;11.13;;;6.10;80.30;;;;;;4876537;29;20049;-90
2022/03/20 09:25:33;;;;;;;25.75;12.60;;;6.10;79.30;;;;;;4863119;29;20502;-90
2022/03/20 09:27:59;;;;;;;;;;;6.60;79.30;;;;;;4847522;29;20045;-91
2022/03/20 09:30:26;;;;;;;28.45;13.18;;;6.30;77.90;;;;;;4863534;29;19930;-89
2022/03/20 09:32:52;;;;;;;27.00;14.98;;;6.60;79.40;;;;;;4853198;29;20188;-90
2022/03/20 09:35:18;;;;;;;25.77;14.05;;;6.50;77.80;;;;;;4880014;29;20641;-90
2022/03/20 09:37:44;;;;;;;26.67;11.93;;;6.60;76.50;;;;;;4863691;29;20084;-88
2022/03/20 09:40:11;;;;;;;26.67;12.90;;;6.50;76.10;;;;;;4879345;29;20486;-92
2022/03/20 09:42:38;;;;;;;28.38;13.93;;;6.60;76.70;;;;;;4896543;29;20065;-91
2022/03/20 09:45:05;;;;;;;28.20;13.93;;;6.70;77.60;;;;;;4881400;29;20093;-90
2022/03/20 09:47:39;;;;;;;33.70;14.88;;;6.80;77.20;;;;;;4849482;29;20052;-89
2022/03/20 09:50:06;;;;;;;31.85;13.52;;;6.90;76.00;;;;;;4865386;29;20059;-90
2022/03/20 09:52:34;;;;;;;25.92;12.80;;;7.00;77.00;;;;;;4865619;29;20056;-89
2022/03/20 09:55:00;;;;;;;30.42;15.52;;;7.10;75.70;;;;;;4880751;29;20452;-90
2022/03/20 09:57:30;;;;;;;27.17;13.70;;;7.10;75.40;;;;;;4864688;29;20147;-90
2022/03/20 10:00:01;;;;;;;24.40;13.00;;;7.20;75.80;;;;;;4898802;29;20076;-77
2022/03/20 10:02:29;;;;;;;25.33;13.95;;;7.30;75.00;;;;;;4896477;29;20049;-87
2022/03/20 10:05:04;;;;;;;26.40;14.27;;;7.40;74.00;;;;;;4874284;29;20066;-82
2022/03/20 10:07:40;;;;;;;26.90;14.43;;;7.40;72.20;;;;;;4864498;29;20048;-83
2022/03/20 10:10:09;;;;;;;27.38;12.35;;;7.50;71.40;;;;;;4867017;29;20183;-87
2022/03/20 10:12:36;;;;;;;33.15;14.45;;;7.50;71.90;;;;;;4872231;29;20413;-85
2022/03/20 10:15:09;;;;;;;25.52;11.93;;;7.60;72.20;;;;;;4870804;29;20052;-86
2022/03/20 10:17:36;;;;;;;20.55;10.10;;;7.70;71.40;;;;;;4860178;29;20052;-86
2022/03/20 10:20:18;;;;;;;26.77;13.43;;;7.80;71.10;;;;;;4870913;29;20566;-86
2022/03/20 10:22:45;;;;;;;25.63;12.65;;;7.80;70.00;;;;;;4874484;29;20467;-87
2022/03/20 10:25:11;;;;;;;;;;;8.00;70.90;;;;;;4863785;29;20053;-76
2022/03/20 10:27:38;;;;;;;25.35;12.70;;;8.00;71.10;;;;;;4866535;29;20373;-83
2022/03/20 10:30:08;;;;;;;28.92;14.60;;;8.30;71.30;;;;;;4875234;29;20045;-86
2022/03/20 10:32:35;;;;;;;29.40;14.55;;;8.20;71.30;;;;;;4879070;29;20414;-86
2022/03/20 10:35:04;;;;;;;27.27;14.88;;;8.30;70.60;;;;;;4869399;29;20063;-79
2022/03/20 10:37:55;;;;;;;29.45;15.25;;;8.50;70.40;;;;;;4864634;29;20052;-79
2022/03/20 10:40:26;;;;;;;23.63;10.90;;;8.50;68.60;;;;;;4893889;29;20045;-78
2022/03/20 10:43:14;;;;;;;25.67;12.70;;;8.60;69.00;;;;;;4877513;29;20163;-78
2022/03/20 10:45:54;;;;;;;32.00;15.38;;;8.70;69.00;;;;;;4888452;29;20491;-79
2022/03/20 10:48:38;;;;;;;27.05;14.48;;;8.70;67.70;;;;;;4858937;29;20072;-79
2022/03/20 10:51:06;;;;;;;29.13;14.23;;;8.80;67.10;;;;;;4844653;29;20064;-77
2022/03/20 10:53:32;;;;;;;26.75;13.88;;;8.90;67.30;;;;;;4859434;29;20109;-78
2022/03/20 10:56:06;;;;;;;29.63;14.35;;;8.90;67.00;;;;;;4875964;29;20602;-79
2022/03/20 10:58:37;;;;;;;32.85;14.82;;;9.00;67.10;;;;;;4875857;29;20049;-79
2022/03/20 11:01:03;;;;;;;33.00;16.42;;;9.10;66.50;;;;;;4876836;29;20068;-79
2022/03/20 11:03:29;;;;;;;28.50;15.05;;;9.20;66.10;;;;;;4860906;29;20049;-85
2022/03/20 11:05:57;;;;;;;31.52;15.15;;;9.20;65.20;;;;;;4863826;29;20080;-82
2022/03/20 11:08:25;;;;;;;27.92;12.13;;;9.30;65.80;;;;;;4868090;29;20053;-79
2022/03/20 11:10:54;;;;;;;28.35;14.80;;;9.40;64.70;;;;;;4869863;29;20048;-86
2022/03/20 11:13:21;;;;;;;31.50;17.00;;;9.50;65.40;;;;;;4866848;29;20132;-82
2022/03/20 11:15:48;;;;;;;30.80;15.23;;;9.90;65.30;;;;;;4852538;29;20541;-82
2022/03/20 11:18:15;;;;;;;26.83;14.93;;;9.70;65.20;;;;;;4842998;29;20052;-82
2022/03/20 11:20:45;;;;;;;28.98;17.00;;;9.80;65.20;;;;;;4877539;29;20056;-82
2022/03/20 11:23:14;;;;;;;27.02;14.60;;;9.90;64.60;;;;;;4871888;29;20055;-81
2022/03/20 11:25:43;;;;;;;27.83;14.40;;;10.10;64.80;;;;;;4840376;29;20045;-82
2022/03/20 11:28:12;;;;;;;27.35;15.93;;;10.10;64.30;;;;;;4856825;29;20052;-83
2022/03/20 11:30:38;;;;;;;27.88;14.80;;;10.20;64.00;;;;;;4887517;29;20108;-82
2022/03/20 11:33:06;;;;;;;28.80;13.77;;;10.30;64.20;;;;;;4875899;29;20076;-83
2022/03/20 11:35:34;;;;;;;26.23;15.50;;;10.40;64.00;;;;;;4871285;29;20076;-83
2022/03/20 11:38:15;;;;;;;29.25;16.95;;;10.50;63.00;;;;;;4874040;29;20128;-82
2022/03/20 11:41:01;;;;;;;26.83;14.90;;;10.60;62.20;;;;;;4858719;29;20052;-81
2022/03/20 11:43:27;;;;;;;29.52;14.55;;;10.70;62.00;;;;;;4874836;29;20048;-81
2022/03/20 11:46:22;;;;;;;28.38;16.42;;;10.70;61.40;;;;;;4833131;29;20055;-82
2022/03/20 11:49:13;;;;;;;24.50;14.27;;;10.90;62.30;;;;;;4879085;29;20060;-81
2022/03/20 11:52:09;;;;;;;31.50;14.25;;;11.10;60.70;;;;;;4878317;29;20467;-82
2022/03/20 11:54:40;;;;;;;29.95;17.52;;;11.20;60.50;;;;;;4877453;29;20060;-82
2022/03/20 11:57:29;;;;;;;28.02;13.85;;;11.30;61.20;;;;;;4862930;29;20087;-81
2022/03/20 11:59:56;;;;;;;31.85;15.82;;;11.30;59.60;;;;;;4863880;29;20506;-82
2022/03/20 12:02:34;;;;;;;27.08;15.82;;;11.40;59.80;;;;;;4877774;29;20562;-81
2022/03/20 12:05:08;;;;;;;29.17;16.52;;;11.60;60.50;;;;;;4861924;29;20044;-83
2022/03/20 12:07:33;;;;;;;30.48;18.00;;;11.90;60.90;;;;;;4863138;29;20115;-82
2022/03/20 12:09:59;;;;;;;27.75;14.32;;;12.20;61.40;;;;;;4860138;29;20045;-82
2022/03/20 12:12:44;;;;;;;30.23;15.30;;;12.40;59.10;;;;;;4862610;29;20107;-82
2022/03/20 12:15:11;;;;;;;25.45;13.63;;;12.40;58.30;;;;;;4879689;29;20052;-83
2022/03/20 12:18:11;;;;;;;32.75;17.90;;;12.50;59.20;;;;;;4871695;29;20037;-83
2022/03/20 12:20:48;;;;;;;30.40;16.83;;;12.70;58.10;;;;;;4836253;29;20139;-83
2022/03/20 12:23:29;;;;;;;28.00;16.90;;;12.70;57.40;;;;;;4862553;29;20053;-83
2022/03/20 12:25:56;;;;;;;28.58;16.52;;;12.70;57.30;;;;;;4878587;29;20048;-82
2022/03/20 12:28:29;;;;;;;29.80;17.13;;;12.60;57.20;;;;;;4855275;29;20049;-82
2022/03/20 12:30:56;;;;;;;30.60;18.02;;;12.60;57.00;;;;;;4866076;29;20414;-82
2022/03/20 12:33:27;;;;;;;28.95;16.17;;;12.50;57.20;;;;;;4844429;29;20076;-82
2022/03/20 12:35:54;;;;;;;28.42;18.25;;;12.50;56.80;;;;;;4879023;29;20064;-81
2022/03/20 12:38:40;;;;;;;27.80;16.58;;;12.40;57.10;;;;;;4873365;29;20076;-82
2022/03/20 12:41:15;;;;;;;32.30;17.73;;;12.60;58.70;;;;;;4876909;29;20060;-83
2022/03/20 12:43:42;;;;;;;32.28;18.40;;;13.10;59.20;;;;;;4875028;29;20063;-84
2022/03/20 12:46:10;;;;;;;27.98;17.13;;;13.60;58.00;;;;;;4860807;29;20384;-83
2022/03/20 12:48:36;;;;;;;33.20;18.52;;;13.70;57.90;;;;;;4872899;29;20079;-82
2022/03/20 12:51:14;;;;;;;28.25;16.98;;;13.80;56.90;;;;;;4880095;29;20048;-83
2022/03/20 12:56:54;;;;;;;29.33;17.95;;;13.80;56.30;;;;;;5504329;23;20284;-82
2022/03/20 12:59:21;;;;;;;32.80;17.75;;;13.90;55.00;;;;;;4882543;29;20051;-81
2022/03/20 13:01:47;;;;;;;27.77;14.85;;;13.70;55.00;;;;;;4889967;29;20125;-81
2022/03/20 13:04:19;;;;;;;29.35;17.73;;;13.30;54.70;;;;;;4867151;29;20081;-81
2022/03/20 13:06:45;;;;;;;29.98;17.13;;;12.80;54.70;;;;;;4881221;29;20080;-81
2022/03/20 13:09:13;;;;;;;29.70;17.13;;;12.50;55.70;;;;;;4879720;29;20076;-80
2022/03/20 13:11:56;;;;;;;29.50;16.77;;;12.20;55.70;;;;;;4896264;29;20048;-80
2022/03/20 13:14:23;;;;;;;28.52;17.23;;;12.00;56.30;;;;;;4895698;29;20052;-80
2022/03/20 13:16:53;;;;;;;29.08;17.13;;;12.00;57.10;;;;;;4884740;29;20486;-80
2022/03/20 13:19:26;;;;;;;32.03;17.48;;;12.00;57.70;;;;;;4878755;29;20072;-80
2022/03/20 13:21:52;;;;;;;32.35;19.17;;;12.00;57.40;;;;;;4870542;29;20091;-81